Blandinsville, Illinois
Current Conditions -  °F | °C
As of 5:15 AM on Wednesday 26 Nov 2014 (Local Time) from KMQB Reporting Station
Broken Clouds Broken Clouds  
Wind Chill: 19°   Ceiling: 11000
Heat Index: 26°   Visibility: 10mi
Dew Point: 25°   Wind: 7mph
Humidity: 95%   Direction: 130°SE
Pressure: 30.08"   Gusts: NA
Location:  40.56°N, 90.87°W
Report Text: KMQB 261115Z AUTO 13006KT 10SM BKN110 M03/M04 A3008 RMK AO2 T10321039
Loading
Personal Weather Stations






























Interactive Weather Map New forecast layout! Learn more

10-Day Weather Forecast

Advertisements
Track Severe Weather on mobile